Grove, United Kingdom
Current Conditions -  °F | °C
As of 3:50 PM on Saturday 25 Oct 2014 (Local Time) from EGVN Reporting Station
Broken Clouds Broken Clouds  
Wind Chill: 59°   Ceiling: 4500
Heat Index: 59°   Visibility: 6mi
Dew Point: 46°   Wind: 8mph
Humidity: 63%   Direction: 230°SW
Pressure: 30.03"   Gusts: NA
Location:  51.61°N, 1.42°W
Report Text: EGVN 251450Z 23007KT 9999 SCT025 BKN045 15/08 Q1017 BLU NOSIG
Loading
Personal Weather Stations






























Interactive Weather Map New forecast layout! Learn more

10-Day Weather Forecast

Advertisements
Track Severe Weather on mobile